Time;durP1;ratioP1;P1;durP2;ratioP2;P2;SDS_P1;SDS_P2;PMS_P1;PMS_P2;Temp;Humidity;BMP_temperature;BMP_pressure;BME280_temperature;BME280_humidity;BME280_pressure;Samples;Min_cycle;Max_cycle;Signal;HPM_P1;HPM_P2
2022/05/01 00:00:12;;;;;;;;;;;11.20;86.90;;;;;;5060550;28;19928;-68
2022/05/01 00:02:38;;;;;;;;;;;11.20;87.00;;;;;;5058775;28;19933;-69
2022/05/01 00:05:07;;;;;;;;;;;11.20;87.00;;;;;;5051111;28;19928;-68
2022/05/01 00:07:33;;;;;;;;;;;11.20;87.00;;;;;;5057174;28;19940;-68
2022/05/01 00:10:00;;;;;;;;;;;11.20;87.00;;;;;;5059339;28;19982;-68
2022/05/01 00:12:26;;;;;;;;;;;11.20;87.00;;;;;;5057760;28;19944;-67
2022/05/01 00:14:53;;;;;;;;;;;11.20;87.00;;;;;;5055037;28;19928;-67
2022/05/01 00:17:19;;;;;;;;;;;11.20;87.00;;;;;;5058517;28;20165;-67
2022/05/01 00:19:46;;;;;;;;;;;11.20;87.00;;;;;;5051952;28;19940;-67
2022/05/01 00:22:14;;;;;;;;;;;11.10;87.00;;;;;;5057408;28;19929;-68
2022/05/01 00:24:40;;;;;;;;;;;11.10;87.00;;;;;;5063968;28;19937;-67
2022/05/01 00:27:07;;;;;;;;;;;11.10;87.00;;;;;;5054578;28;19928;-67
2022/05/01 00:29:34;;;;;;;;;;;11.10;87.00;;;;;;5060825;28;20450;-68
2022/05/01 00:32:02;;;;;;;;;;;11.10;87.00;;;;;;5061555;28;19929;-67
2022/05/01 00:37:14;;;;;;;;;;;11.10;87.00;;;;;;5063380;28;20010;-66
2022/05/01 00:39:41;;;;;;;;;;;11.10;87.10;;;;;;5056006;28;19932;-67
2022/05/01 00:42:08;;;;;;;;;;;11.10;87.10;;;;;;5056823;28;20419;-67
2022/05/01 00:44:34;;;;;;;;;;;11.10;87.20;;;;;;5058910;28;20473;-67
2022/05/01 00:47:01;;;;;;;;;;;11.10;87.30;;;;;;5062941;28;20342;-67
2022/05/01 00:49:28;;;;;;;;;;;11.10;87.40;;;;;;5061959;28;20211;-67
2022/05/01 00:51:56;;;;;;;;;;;11.00;87.40;;;;;;5063539;28;19928;-68
2022/05/01 00:54:25;;;;;;;;;;;11.10;87.50;;;;;;5057170;28;19929;-67
2022/05/01 00:56:53;;;;;;;;;;;11.10;87.50;;;;;;5056807;28;20658;-67
2022/05/01 00:59:20;;;;;;;;;;;11.00;87.50;;;;;;5057784;28;19933;-67
2022/05/01 01:01:48;;;;;;;;;;;11.00;87.50;;;;;;5054699;28;19925;-68
2022/05/01 01:04:15;;;;;;;;;;;11.00;87.60;;;;;;5057144;28;19978;-67
2022/05/01 01:06:42;;;;;;;;;;;11.00;87.60;;;;;;5057386;28;19928;-67
2022/05/01 01:09:09;;;;;;;;;;;11.00;87.60;;;;;;5061078;28;19955;-65
2022/05/01 01:11:38;;;;;;;;;;;11.00;87.70;;;;;;5062100;28;19933;-68
2022/05/01 01:14:05;;;;;;;;;;;11.00;87.70;;;;;;5060716;28;19974;-68
2022/05/01 01:16:32;;;;;;;;;;;11.00;87.80;;;;;;5055178;28;20027;-68
2022/05/01 01:18:58;;;;;;;;;;;11.00;87.80;;;;;;5060201;28;19924;-67
2022/05/01 01:21:27;;;;;;;;;;;10.90;87.80;;;;;;5061910;28;19936;-68
2022/05/01 01:23:54;;;;;;;;;;;10.90;87.80;;;;;;5057022;28;20355;-68
2022/05/01 01:26:21;;;;;;;;;;;10.90;87.80;;;;;;5057638;28;19975;-66
2022/05/01 01:28:48;;;;;;;;;;;11.00;87.90;;;;;;5058283;28;19932;-67
2022/05/01 01:34:00;;;;;;;;;;;10.90;88.00;;;;;;5059007;28;19931;-68
2022/05/01 01:36:29;;;;;;;;;;;10.90;87.90;;;;;;5052988;28;19939;-67
2022/05/01 01:38:55;;;;;;;;;;;10.90;88.00;;;;;;5052161;28;19929;-67
2022/05/01 01:41:22;;;;;;;;;;;10.90;88.00;;;;;;5055926;28;20375;-67
2022/05/01 01:43:49;;;;;;;;;;;10.90;88.00;;;;;;5058982;28;19955;-68
2022/05/01 01:46:16;;;;;;;;;;;10.90;88.00;;;;;;5053137;28;19928;-68
2022/05/01 01:48:44;;;;;;;;;;;10.90;88.10;;;;;;5056086;28;20293;-67
2022/05/01 01:51:10;;;;;;;;;;;10.90;88.10;;;;;;5060811;28;19973;-67
2022/05/01 01:53:38;;;;;;;;;;;10.90;88.10;;;;;;5053931;28;19936;-68
2022/05/01 01:56:07;;;;;;;;;;;10.90;88.20;;;;;;5051506;28;19936;-68
2022/05/01 01:58:34;;;;;;;;;;;10.90;88.30;;;;;;5050651;28;19943;-67
2022/05/01 02:01:01;;;;;;;;;;;10.90;88.20;;;;;;5048578;28;19929;-67
2022/05/01 02:03:27;;;;;;;;;;;10.80;88.20;;;;;;5059559;28;19932;-67
2022/05/01 02:05:54;;;;;;;;;;;10.90;88.30;;;;;;5053900;28;19932;-68
2022/05/01 02:08:20;;;;;;;;;;;10.90;88.30;;;;;;5055655;28;19937;-65
2022/05/01 02:10:48;;;;;;;;;;;10.90;88.30;;;;;;5055372;28;19929;-68
2022/05/01 02:13:16;;;;;;;;;;;10.80;88.30;;;;;;5057084;28;19982;-67
2022/05/01 02:15:42;;;;;;;;;;;10.80;88.30;;;;;;5055160;28;19925;-67
2022/05/01 02:18:09;;;;;;;;;;;10.80;88.40;;;;;;5058724;28;19932;-67
2022/05/01 02:23:16;;;;;;;;;;;10.80;88.40;;;;;;5056833;28;20098;-69
2022/05/01 02:25:43;;;;;;;;;;;10.80;88.40;;;;;;5052619;28;20590;-66
2022/05/01 02:28:11;;;;;;;;;;;10.80;88.40;;;;;;5059850;28;19929;-66
2022/05/01 02:30:38;;;;;;;;;;;10.80;88.50;;;;;;5058676;28;19951;-68
2022/05/01 02:33:06;;;;;;;;;;;10.80;88.50;;;;;;5055980;28;19928;-68
2022/05/01 02:35:33;;;;;;;;;;;10.80;88.50;;;;;;5062617;28;20023;-68
2022/05/01 02:37:59;;;;;;;;;;;10.70;88.50;;;;;;5060848;28;19978;-68
2022/05/01 02:40:26;;;;;;;;;;;10.80;88.60;;;;;;5054479;28;19928;-68
2022/05/01 02:42:53;;;;;;;;;;;10.80;88.60;;;;;;5058487;28;19935;-67
2022/05/01 02:45:21;;;;;;;;;;;10.80;88.60;;;;;;5057478;28;20139;-67
2022/05/01 02:47:47;;;;;;;;;;;10.80;88.60;;;;;;5057611;28;19951;-67
2022/05/01 02:50:14;;;;;;;;;;;10.70;88.60;;;;;;5058346;28;19935;-68
2022/05/01 02:52:40;;;;;;;;;;;10.70;88.60;;;;;;5056567;28;19933;-67
2022/05/01 02:55:07;;;;;;;;;;;10.70;88.60;;;;;;5051174;28;20669;-66
2022/05/01 02:57:34;;;;;;;;;;;10.70;88.60;;;;;;5056304;28;19928;-68
2022/05/01 03:00:01;;;;;;;;;;;10.70;88.60;;;;;;5053282;28;20015;-68
2022/05/01 03:02:29;;;;;;;;;;;10.70;88.70;;;;;;5055755;28;20042;-67
2022/05/01 03:04:55;;;;;;;;;;;10.70;88.70;;;;;;5057728;28;20641;-68
2022/05/01 03:07:22;;;;;;;;;;;10.70;88.70;;;;;;5060876;28;19932;-66
2022/05/01 03:09:49;;;;;;;;;;;10.70;88.70;;;;;;5060165;28;19929;-67
2022/05/01 03:12:18;;;;;;;;;;;10.70;88.70;;;;;;5058124;28;19932;-67
2022/05/01 03:14:45;;;;;;;;;;;10.70;88.80;;;;;;5057686;28;19935;-66
2022/05/01 03:17:11;;;;;;;;;;;10.70;88.80;;;;;;5057275;28;19937;-65
2022/05/01 03:22:24;;;;;;;;;;;10.70;88.80;;;;;;5059943;28;19935;-67
2022/05/01 03:24:50;;;;;;;;;;;10.70;88.90;;;;;;5060413;28;19928;-68
2022/05/01 03:27:17;;;;;;;;;;;10.60;88.80;;;;;;5057623;28;19936;-68
2022/05/01 03:30:15;;;;;;;;;;;10.60;88.80;;;;;;5059251;28;19985;-67
2022/05/01 03:32:31;;;;;;;;;;;10.70;88.90;;;;;;5058018;28;19935;-68
2022/05/01 03:35:00;;;;;;;;;;;10.60;88.80;;;;;;5060692;28;19985;-66
2022/05/01 03:37:28;;;;;;;;;;;10.60;88.80;;;;;;5059935;28;19955;-68
2022/05/01 03:39:54;;;;;;;;;;;10.60;88.90;;;;;;5055344;28;20388;-68
2022/05/01 03:42:21;;;;;;;;;;;10.60;88.90;;;;;;5052199;28;19982;-65
2022/05/01 03:44:47;;;;;;;;;;;10.60;88.90;;;;;;5058997;28;19936;-66
2022/05/01 03:47:14;;;;;;;;;;;10.60;88.90;;;;;;5061204;28;19982;-67
2022/05/01 03:49:41;;;;;;;;;;;10.60;88.90;;;;;;5056953;28;19932;-68
2022/05/01 03:52:09;;;;;;;;;;;10.60;88.90;;;;;;5053167;28;19970;-68
2022/05/01 03:54:36;;;;;;;;;;;10.60;89.00;;;;;;5052978;28;20018;-68
2022/05/01 03:57:03;;;;;;;;;;;10.50;89.00;;;;;;5057812;28;19932;-68
2022/05/01 03:59:30;;;;;;;;;;;10.60;89.20;;;;;;5057136;28;19934;-68
2022/05/01 04:01:57;;;;;;;;;;;10.50;89.10;;;;;;5060717;28;20003;-68
2022/05/01 04:04:23;;;;;;;;;;;10.60;89.20;;;;;;5057882;28;19934;-68
2022/05/01 04:06:50;;;;;;;;;;;10.50;89.20;;;;;;5062461;28;19932;-67
2022/05/01 04:09:18;;;;;;;;;;;10.50;89.20;;;;;;5062961;28;19928;-67
2022/05/01 04:11:44;;;;;;;;;;;10.50;89.10;;;;;;5061088;28;19928;-68
2022/05/01 04:14:11;;;;;;;;;;;10.50;89.20;;;;;;5059929;28;20370;-68
2022/05/01 04:16:38;;;;;;;;;;;10.50;89.20;;;;;;5059058;28;20016;-69
2022/05/01 04:19:04;;;;;;;;;;;10.50;89.20;;;;;;5065111;28;19940;-68
2022/05/01 04:21:31;;;;;;;;;;;10.50;89.20;;;;;;5061371;28;19928;-68
2022/05/01 04:23:58;;;;;;;;;;;10.50;89.20;;;;;;5057367;28;19928;-68
2022/05/01 04:26:26;;;;;;;;;;;10.50;89.20;;;;;;5059021;28;19932;-68
2022/05/01 04:31:36;;;;;;;;;;;10.50;89.20;;;;;;5060655;28;21032;-68
2022/05/01 04:34:02;;;;;;;;;;;10.50;89.30;;;;;;5064481;28;19933;-68
2022/05/01 04:36:29;;;;;;;;;;;10.50;89.30;;;;;;5062642;28;19936;-69
2022/05/01 04:38:55;;;;;;;;;;;10.50;89.30;;;;;;5064390;28;19982;-68
2022/05/01 04:41:22;;;;;;;;;;;10.50;89.30;;;;;;5061583;28;19986;-68
2022/05/01 04:43:50;;;;;;;;;;;10.50;89.30;;;;;;5055475;28;19933;-68
2022/05/01 04:46:16;;;;;;;;;;;10.50;89.30;;;;;;5063293;28;19971;-68
2022/05/01 04:48:43;;;;;;;;;;;10.50;89.30;;;;;;5056021;28;19936;-68
2022/05/01 04:51:09;;;;;;;;;;;10.50;89.40;;;;;;5062582;28;19928;-68
2022/05/01 04:53:36;;;;;;;;;;;10.50;89.40;;;;;;5060792;28;19929;-68
2022/05/01 04:58:43;;;;;;;;;;;10.50;89.40;;;;;;5060440;28;20303;-67
2022/05/01 05:01:11;;;;;;;;;;;10.50;89.40;;;;;;5054805;28;19997;-67
2022/05/01 05:03:38;;;;;;;;;;;10.50;89.40;;;;;;5062592;28;19935;-68
2022/05/01 05:06:04;;;;;;;;;;;10.50;89.40;;;;;;5057046;28;20380;-68
2022/05/01 05:11:15;;;;;;;;;;;10.50;89.40;;;;;;5058278;28;19931;-68
2022/05/01 05:13:42;;;;;;;;;;;10.50;89.40;;;;;;5057080;28;19924;-67
2022/05/01 05:16:13;;;;;;;;;;;10.50;89.40;;;;;;5054505;28;19991;-68
2022/05/01 05:18:41;;;;;;;;;;;10.50;89.40;;;;;;5056279;28;19932;-66
2022/05/01 05:21:07;;;;;;;;;;;10.40;89.40;;;;;;5056544;28;19929;-68
2022/05/01 05:23:34;;;;;;;;;;;10.50;89.40;;;;;;5057835;28;19932;-68
2022/05/01 05:26:00;;;;;;;;;;;10.40;89.40;;;;;;5062123;28;20195;-68
2022/05/01 05:28:27;;;;;;;;;;;10.40;89.80;;;;;;5056962;28;20416;-68
2022/05/01 05:30:54;;;;;;;;;;;10.50;89.40;;;;;;5059775;28;19928;-68
2022/05/01 05:33:20;;;;;;;;;;;10.40;89.40;;;;;;5060715;28;19951;-68
2022/05/01 05:35:48;;;;;;;;;;;10.40;89.30;;;;;;5060842;28;19928;-67
2022/05/01 05:38:16;;;;;;;;;;;10.50;89.40;;;;;;5060229;28;19998;-68
2022/05/01 05:40:43;;;;;;;;;;;10.50;89.40;;;;;;5059754;28;19939;-68
2022/05/01 05:43:09;;;;;;;;;;;10.40;89.30;;;;;;5052453;28;19950;-68
2022/05/01 05:45:37;;;;;;;;;;;10.50;89.40;;;;;;5060536;28;19932;-68
2022/05/01 05:48:04;;;;;;;;;;;10.50;89.40;;;;;;5060728;28;19955;-68
2022/05/01 05:50:30;;;;;;;;;;;10.40;89.40;;;;;;5062418;28;20713;-68
2022/05/01 05:52:58;;;;;;;;;;;10.40;89.40;;;;;;5060329;28;19929;-68
2022/05/01 05:55:25;;;;;;;;;;;10.40;89.40;;;;;;5052179;28;19928;-68
2022/05/01 05:57:51;;;;;;;;;;;10.50;89.50;;;;;;5063375;28;19939;-68
2022/05/01 06:00:18;;;;;;;;;;;10.50;89.40;;;;;;5056136;28;19929;-68
2022/05/01 06:02:45;;;;;;;;;;;10.40;89.40;;;;;;5051483;28;19974;-69
2022/05/01 06:05:11;;;;;;;;;;;10.50;89.40;;;;;;5057046;28;19937;-67
2022/05/01 06:07:38;;;;;;;;;;;10.50;89.40;;;;;;5054843;28;19981;-69
2022/05/01 06:10:06;;;;;;;;;;;10.50;89.40;;;;;;5061374;28;20335;-68
2022/05/01 06:12:40;;;;;;;;;;;10.50;89.40;;;;;;5060246;28;19936;-66
2022/05/01 06:15:07;;;;;;;;;;;10.50;89.40;;;;;;5060743;28;20677;-67
2022/05/01 06:17:33;;;;;;;;;;;10.50;89.40;;;;;;5056304;28;19933;-68
2022/05/01 06:20:00;;;;;;;;;;;10.50;89.30;;;;;;5059739;28;20376;-68
2022/05/01 06:22:26;;;;;;;;;;;10.50;89.30;;;;;;5056414;28;19932;-69
2022/05/01 06:24:53;;;;;;;;;;;10.50;89.20;;;;;;5061719;28;19985;-68
2022/05/01 06:27:21;;;;;;;;;;;10.50;89.20;;;;;;5052197;28;19995;-67
2022/05/01 06:29:47;;;;;;;;;;;10.50;89.20;;;;;;5055672;28;20122;-68
2022/05/01 06:32:17;;;;;;;;;;;10.50;89.10;;;;;;5056705;28;20311;-68
2022/05/01 06:34:45;;;;;;;;;;;10.50;89.10;;;;;;5059922;28;20010;-67
2022/05/01 06:37:12;;;;;;;;;;;10.50;89.00;;;;;;5060347;28;19924;-66
2022/05/01 06:39:38;;;;;;;;;;;10.50;89.00;;;;;;5052880;28;19932;-68
2022/05/01 06:42:05;;;;;;;;;;;10.50;88.90;;;;;;5059444;28;19928;-69
2022/05/01 06:44:33;;;;;;;;;;;10.50;88.80;;;;;;5055538;28;20051;-69
2022/05/01 06:47:00;;;;;;;;;;;10.50;88.80;;;;;;5054930;28;19936;-68
2022/05/01 06:49:26;;;;;;;;;;;10.50;88.70;;;;;;5060956;28;19974;-69
2022/05/01 06:51:53;;;;;;;;;;;10.60;88.70;;;;;;5061560;28;19932;-69
2022/05/01 06:54:19;;;;;;;;;;;10.60;88.70;;;;;;5056922;28;20289;-68
2022/05/01 06:56:46;;;;;;;;;;;10.60;88.60;;;;;;5059584;28;19932;-69
2022/05/01 06:59:12;;;;;;;;;;;10.60;88.60;;;;;;5055187;28;20419;-68
2022/05/01 07:01:40;;;;;;;;;;;10.60;88.50;;;;;;5060478;28;19982;-67
2022/05/01 07:04:07;;;;;;;;;;;10.60;88.50;;;;;;5060372;28;19929;-68
2022/05/01 07:06:34;;;;;;;;;;;10.60;88.60;;;;;;5060124;28;19932;-69
2022/05/01 07:09:00;;;;;;;;;;;10.70;88.60;;;;;;5061552;28;19929;-69
2022/05/01 07:11:27;;;;;;;;;;;10.60;88.50;;;;;;5058922;28;19932;-68
2022/05/01 07:13:53;;;;;;;;;;;10.70;88.50;;;;;;5058052;28;19990;-69
2022/05/01 07:16:22;;;;;;;;;;;10.60;88.50;;;;;;5054437;28;19998;-68
2022/05/01 07:18:50;;;;;;;;;;;10.70;88.60;;;;;;5057975;28;20051;-68
2022/05/01 07:21:16;;;;;;;;;;;10.70;88.60;;;;;;5060478;28;19924;-67
2022/05/01 07:23:43;;;;;;;;;;;10.70;88.50;;;;;;5060285;28;19929;-68
2022/05/01 07:26:09;;;;;;;;;;;10.70;88.50;;;;;;5060775;28;20475;-67
2022/05/01 07:28:36;;;;;;;;;;;10.70;88.30;;;;;;5059948;28;19935;-68
2022/05/01 07:31:03;;;;;;;;;;;10.80;88.30;;;;;;5060123;28;19936;-69
2022/05/01 07:33:30;;;;;;;;;;;10.80;88.20;;;;;;5061003;28;19933;-69
2022/05/01 07:35:58;;;;;;;;;;;10.80;88.10;;;;;;5061218;28;19928;-69
2022/05/01 07:38:24;;;;;;;;;;;10.80;87.90;;;;;;5056997;28;20023;-68
2022/05/01 07:40:51;;;;;;;;;;;10.80;87.80;;;;;;5056894;28;19928;-69
2022/05/01 07:43:18;;;;;;;;;;;10.80;87.70;;;;;;5054147;28;19986;-68
2022/05/01 07:45:44;;;;;;;;;;;10.90;87.70;;;;;;5061416;28;19932;-69
2022/05/01 07:48:11;;;;;;;;;;;10.90;87.50;;;;;;5061576;28;19929;-68
2022/05/01 07:50:37;;;;;;;;;;;10.90;87.40;;;;;;5063998;28;20303;-68
2022/05/01 07:53:05;;;;;;;;;;;11.00;87.40;;;;;;5062460;28;19933;-69
2022/05/01 07:55:32;;;;;;;;;;;11.00;87.30;;;;;;5061155;28;19928;-69
2022/05/01 07:57:58;;;;;;;;;;;11.00;87.30;;;;;;5060975;28;19954;-68
2022/05/01 08:00:25;;;;;;;;;;;11.10;87.40;;;;;;5056744;28;19928;-67
2022/05/01 08:05:36;;;;;;;;;;;11.10;87.30;;;;;;5057414;28;19931;-68
2022/05/01 08:08:02;;;;;;;;;;;11.20;87.20;;;;;;5058762;28;19928;-69
2022/05/01 08:10:32;;;;;;;;;;;11.20;87.10;;;;;;5062304;28;19928;-67
2022/05/01 08:12:59;;;;;;;;;;;11.20;87.10;;;;;;5058747;28;19928;-68
2022/05/01 08:15:25;;;;;;;;;;;11.20;86.90;;;;;;5060565;28;19933;-69
2022/05/01 08:17:52;;;;;;;;;;;11.20;86.90;;;;;;5057022;28;19929;-67
2022/05/01 08:23:03;;;;;;;;;;;11.30;87.10;;;;;;5057361;28;20312;-69
2022/05/01 08:25:31;;;;;;;;;;;11.30;87.00;;;;;;5056430;28;19928;-69
2022/05/01 08:27:58;;;;;;;;;;;11.30;87.00;;;;;;5063173;28;20908;-67
2022/05/01 08:30:25;;;;;;;;;;;11.40;87.70;;;;;;5061436;28;19939;-69
2022/05/01 08:32:51;;;;;;;;;;;11.40;86.80;;;;;;5064951;28;19932;-68
2022/05/01 08:35:18;;;;;;;;;;;11.40;86.90;;;;;;5063693;28;19947;-68
2022/05/01 08:37:44;;;;;;;;;;;11.40;86.90;;;;;;5056217;28;19932;-68
2022/05/01 08:40:11;;;;;;;;;;;11.50;86.90;;;;;;5057440;28;19932;-68
2022/05/01 08:42:39;;;;;;;;;;;11.50;87.10;;;;;;5054070;28;19928;-68
2022/05/01 08:45:09;;;;;;;;;;;11.50;86.80;;;;;;5062770;28;19951;-67
2022/05/01 08:47:40;;;;;;;;;;;11.50;86.60;;;;;;5062994;28;19933;-68
2022/05/01 08:50:08;;;;;;;;;;;11.50;86.50;;;;;;5062247;28;19932;-69
2022/05/01 08:52:35;;;;;;;;;;;11.60;86.50;;;;;;5057252;28;20407;-69
2022/05/01 08:55:04;;;;;;;;;;;11.70;86.40;;;;;;5057226;28;20045;-68
2022/05/01 08:57:33;;;;;;;;;;;11.60;86.30;;;;;;5058788;28;19973;-68
2022/05/01 09:00:01;;;;;;;;;;;11.70;86.20;;;;;;5059361;28;20439;-67
2022/05/01 09:02:28;;;;;;;;;;;11.70;86.10;;;;;;5055406;28;20293;-67
2022/05/01 09:04:57;;;;;;;;;;;11.80;86.10;;;;;;5056937;28;20515;-68
2022/05/01 09:07:23;;;;;;;;;;;11.80;85.90;;;;;;5059684;28;19945;-68
2022/05/01 09:09:51;;;;;;;;;;;11.80;85.80;;;;;;5062593;28;19931;-69
2022/05/01 09:15:09;;;;;;;;;;;11.90;85.60;;;;;;5044889;28;19927;-68
2022/05/01 09:17:36;;;;;;;;;;;11.90;85.40;;;;;;5062693;28;19932;-66
2022/05/01 09:20:06;;;;;;;;;;;12.00;85.30;;;;;;5056218;28;19951;-68
2022/05/01 09:22:47;;;;;;;;;;;12.00;85.20;;;;;;5061319;28;20335;-68
2022/05/01 09:25:17;;;;;;;;;;;12.10;85.20;;;;;;5054724;28;19955;-68
2022/05/01 09:27:43;;;;;;;;;;;12.10;85.00;;;;;;5061641;28;19932;-68
2022/05/01 09:30:15;;;;;;;;;;;12.10;85.00;;;;;;5061955;28;19978;-66
2022/05/01 09:32:42;;;;;;;;;;;12.20;85.10;;;;;;5063177;28;19928;-68
2022/05/01 09:35:12;;;;;;;;;;;12.20;84.90;;;;;;5060512;28;19981;-66
2022/05/01 09:37:39;;;;;;;;;;;12.20;84.80;;;;;;5054626;28;19940;-66
2022/05/01 09:40:06;;;;;;;;;;;12.30;84.60;;;;;;5059273;28;19932;-68
2022/05/01 09:42:34;;;;;;;;;;;12.30;84.40;;;;;;5061555;28;19929;-68
2022/05/01 09:45:07;;;;;;;;;;;12.30;84.30;;;;;;5059708;28;19936;-67
2022/05/01 09:47:42;;;;;;;;;;;12.30;84.20;;;;;;5062977;28;19932;-67
2022/05/01 09:50:09;;;;;;;;;;;12.40;84.00;;;;;;5057628;28;19929;-69
2022/05/01 09:52:58;;;;;;;;;;;12.40;83.80;;;;;;5057957;28;19936;-68
2022/05/01 09:55:25;;;;;;;;;;;12.50;83.90;;;;;;5060291;28;20017;-68
2022/05/01 09:58:02;;;;;;;;;;;12.50;83.80;;;;;;5057766;28;19982;-67
2022/05/01 10:00:36;;;;;;;;;;;12.50;83.60;;;;;;5059293;28;19959;-69
2022/05/01 10:03:17;;;;;;;;;;;12.60;83.50;;;;;;5059348;28;19936;-69
2022/05/01 10:05:45;;;;;;;;;;;12.60;83.40;;;;;;5060778;28;19932;-69
2022/05/01 10:08:12;;;;;;;;;;;12.60;83.30;;;;;;5058957;28;20394;-67
2022/05/01 10:10:40;;;;;;;;;;;12.70;83.30;;;;;;5061303;28;19933;-68
2022/05/01 10:13:07;;;;;;;;;;;12.70;83.30;;;;;;5061435;28;20766;-68
2022/05/01 10:15:34;;;;;;;;;;;12.70;83.40;;;;;;5061198;28;19942;-69
2022/05/01 10:18:02;;;;;;;;;;;12.70;83.20;;;;;;5061995;28;19928;-67
2022/05/01 10:20:29;;;;;;;;;;;12.80;83.10;;;;;;5061503;28;19937;-69
2022/05/01 10:22:57;;;;;;;;;;;12.70;82.90;;;;;;5061357;28;19948;-69
2022/05/01 10:25:24;;;;;;;;;;;12.80;82.80;;;;;;5049720;28;19982;-69
2022/05/01 10:27:57;;;;;;;;;;;12.90;82.70;;;;;;5060925;28;19929;-69
2022/05/01 10:33:25;;;;;;;;;;;13.00;82.50;;;;;;5055395;28;19951;-68
2022/05/01 10:36:07;;;;;;;;;;;13.00;82.40;;;;;;5056419;28;19932;-69
2022/05/01 10:38:40;;;;;;;;;;;13.00;82.30;;;;;;5043300;28;19928;-68
2022/05/01 10:41:07;;;;;;;;;;;13.00;82.10;;;;;;5053136;28;20602;-69
2022/05/01 10:43:36;;;;;;;;;;;13.10;82.10;;;;;;5059735;28;20758;-69
2022/05/01 10:46:05;;;;;;;;;;;13.20;82.30;;;;;;5056518;28;21465;-69
2022/05/01 10:48:33;;;;;;;;;;;13.20;82.00;;;;;;5055148;28;19944;-68
2022/05/01 10:51:18;;;;;;;;;;;13.20;81.80;;;;;;5057440;28;19932;-68
2022/05/01 10:53:59;;;;;;;;;;;13.20;81.50;;;;;;5055305;28;19929;-69
2022/05/01 10:56:34;;;;;;;;;;;13.30;81.20;;;;;;5051358;28;19932;-69
2022/05/01 10:59:16;;;;;;;;;;;13.40;81.00;;;;;;5058321;28;19929;-68
2022/05/01 11:01:52;;;;;;;;;;;13.40;80.70;;;;;;5051471;28;19928;-68
2022/05/01 11:04:20;;;;;;;;;;;13.40;80.50;;;;;;5057139;28;19933;-68
2022/05/01 11:06:46;;;;;;;;;;;13.40;80.40;;;;;;5061378;28;19929;-69
2022/05/01 11:09:14;;;;;;;;;;;13.40;80.50;;;;;;5057814;28;19997;-67
2022/05/01 11:11:43;;;;;;;;;;;13.40;80.40;;;;;;5061014;28;19932;-68
2022/05/01 11:14:10;;;;;;;;;;;13.50;80.40;;;;;;5056479;28;19935;-69
2022/05/01 11:16:50;;;;;;;;;;;13.50;80.20;;;;;;5055973;28;20451;-69
2022/05/01 11:19:16;;;;;;;;;;;13.60;80.10;;;;;;5060337;28;19936;-68
2022/05/01 11:21:47;;;;;;;;;;;13.60;80.00;;;;;;5061117;28;20444;-70
2022/05/01 11:24:15;;;;;;;;;;;13.70;79.90;;;;;;5058662;28;19936;-67
2022/05/01 11:27:07;;;;;;;;;;;13.70;79.70;;;;;;5055560;28;20344;-67
2022/05/01 11:29:35;;;;;;;;;;;13.70;79.50;;;;;;5058240;28;20199;-68
2022/05/01 11:32:17;;;;;;;;;;;13.80;79.40;;;;;;5059048;28;19928;-69
2022/05/01 11:34:53;;;;;;;;;;;13.80;79.20;;;;;;5060659;28;20657;-68
2022/05/01 11:37:21;;;;;;;;;;;13.80;79.20;;;;;;5054079;28;19929;-69
2022/05/01 11:40:21;;;;;;;;;;;13.80;79.10;;;;;;5053253;28;19928;-68
2022/05/01 11:42:50;;;;;;;;;;;13.90;79.10;;;;;;5050488;28;20019;-69
2022/05/01 11:45:18;;;;;;;;;;;13.90;79.00;;;;;;5050753;28;20195;-67
2022/05/01 11:47:48;;;;;;;;;;;13.90;79.10;;;;;;5060041;28;19986;-69
2022/05/01 11:50:19;;;;;;;;;;;14.00;79.20;;;;;;5062332;28;19928;-68
2022/05/01 11:52:49;;;;;;;;;;;14.00;79.10;;;;;;5055559;28;19939;-69
2022/05/01 11:55:18;;;;;;;;;;;14.10;79.00;;;;;;5050662;28;19932;-67
2022/05/01 12:03:29;;;;;;;;;;;14.20;78.50;;;;;;5058966;28;19935;-68
2022/05/01 12:05:56;;;;;;;;;;;14.30;78.50;;;;;;5050280;28;19933;-68
2022/05/01 12:08:23;;;;;;;;;;;14.30;78.30;;;;;;5057336;28;19929;-68
2022/05/01 12:10:50;;;;;;;;;;;14.40;78.20;;;;;;5060815;28;19929;-68
2022/05/01 12:13:17;;;;;;;;;;;14.40;78.00;;;;;;5053662;28;20709;-68
2022/05/01 12:15:45;;;;;;;;;;;14.50;77.90;;;;;;5055963;28;19928;-68
2022/05/01 12:18:11;;;;;;;;;;;14.50;77.90;;;;;;5057695;28;19928;-68
2022/05/01 12:20:38;;;;;;;;;;;14.50;77.80;;;;;;5060173;28;19928;-69
2022/05/01 12:23:11;;;;;;;;;;;14.60;77.90;;;;;;5059383;28;19929;-68
2022/05/01 12:25:40;;;;;;;;;;;14.60;77.80;;;;;;5053435;28;20304;-69
2022/05/01 12:28:07;;;;;;;;;;;14.60;77.50;;;;;;5057920;28;20011;-68
2022/05/01 12:30:34;;;;;;;;;;;14.60;77.50;;;;;;5056129;28;19974;-69
2022/05/01 12:33:03;;;;;;;;;;;14.70;77.60;;;;;;5062894;28;19928;-69
2022/05/01 12:35:50;;;;;;;;;;;14.70;77.50;;;;;;5060087;28;20400;-70
2022/05/01 12:38:16;;;;;;;;;;;14.70;77.70;;;;;;5060182;28;19933;-69
2022/05/01 12:46:21;;;;;;;;;;;14.90;77.10;;;;;;5062327;28;19930;-68
2022/05/01 12:48:49;;;;;;;;;;;15.00;76.80;;;;;;5052769;28;20036;-69
2022/05/01 12:51:15;;;;;;;;;;;15.10;76.70;;;;;;5061802;28;19924;-67
2022/05/01 12:53:42;;;;;;;;;;;15.10;76.60;;;;;;5060359;28;19977;-67
2022/05/01 12:56:16;;;;;;;;;;;15.20;76.20;;;;;;5062560;28;19929;-69
2022/05/01 12:58:43;;;;;;;;;;;15.30;76.10;;;;;;5059826;28;19928;-69
2022/05/01 13:01:21;;;;;;;;;;;15.30;75.90;;;;;;5056928;28;19928;-69
2022/05/01 13:03:49;;;;;;;;;;;15.30;75.60;;;;;;5057071;28;20398;-69
2022/05/01 13:06:17;;;;;;;;;;;15.40;75.50;;;;;;5059387;28;19951;-69
2022/05/01 13:08:44;;;;;;;;;;;15.40;75.40;;;;;;5061231;28;19928;-68
2022/05/01 13:11:12;;;;;;;;;;;15.50;75.30;;;;;;5058879;28;19932;-69
2022/05/01 13:13:42;;;;;;;;;;;15.60;75.30;;;;;;5059069;28;19978;-67
2022/05/01 13:16:10;;;;;;;;;;;15.60;74.90;;;;;;5054982;28;19937;-69
2022/05/01 13:18:37;;;;;;;;;;;15.70;74.70;;;;;;5062512;28;19932;-68
2022/05/01 13:21:05;;;;;;;;;;;15.70;74.50;;;;;;5062796;28;20466;-69
2022/05/01 13:23:31;;;;;;;;;;;15.80;74.40;;;;;;5057560;28;20069;-69
2022/05/01 13:25:58;;;;;;;;;;;15.80;74.20;;;;;;5059304;28;19943;-67
2022/05/01 13:28:25;;;;;;;;;;;15.90;74.10;;;;;;5059643;28;19943;-68
2022/05/01 13:30:52;;;;;;;;;;;15.90;74.20;;;;;;5062196;28;19929;-70
2022/05/01 13:33:18;;;;;;;;;;;15.90;74.00;;;;;;5062012;28;20001;-67
2022/05/01 13:35:45;;;;;;;;;;;16.00;74.10;;;;;;5064299;28;19932;-69
2022/05/01 13:38:12;;;;;;;;;;;16.00;73.80;;;;;;5059581;28;20038;-68
2022/05/01 13:46:06;;;;;;;;;;;16.00;73.60;;;;;;5060904;28;19936;-68
2022/05/01 13:48:33;;;;;;;;;;;16.10;73.40;;;;;;5059464;28;19928;-69
2022/05/01 13:50:59;;;;;;;;;;;16.10;73.10;;;;;;5062645;28;19940;-69
2022/05/01 13:53:27;;;;;;;;;;;16.20;73.20;;;;;;5059315;28;19994;-69
2022/05/01 13:55:54;;;;;;;;;;;16.20;73.30;;;;;;5050719;28;19937;-69
2022/05/01 13:58:21;;;;;;;;;;;16.20;73.20;;;;;;5060691;28;19970;-70
2022/05/01 14:00:47;;;;;;;;;;;16.30;73.00;;;;;;5055043;28;20729;-69
2022/05/01 14:03:14;;;;;;;;;;;16.30;72.90;;;;;;5059212;28;20449;-69
2022/05/01 14:05:40;;;;;;;;;;;16.40;72.80;;;;;;5050916;28;19983;-68
2022/05/01 14:08:08;;;;;;;;;;;16.40;72.70;;;;;;5059067;28;19932;-69
2022/05/01 14:10:36;;;;;;;;;;;16.50;72.80;;;;;;5055110;28;20016;-70
2022/05/01 14:13:07;;;;;;;;;;;16.50;72.50;;;;;;5058768;28;20346;-69
2022/05/01 14:15:34;;;;;;;;;;;16.50;72.40;;;;;;5060186;28;20730;-70
2022/05/01 14:18:00;;;;;;;;;;;16.60;72.30;;;;;;5062973;28;19928;-69
2022/05/01 14:20:27;;;;;;;;;;;16.60;72.30;;;;;;5062022;28;19936;-67
2022/05/01 14:22:55;;;;;;;;;;;16.60;72.20;;;;;;5062173;28;20009;-70
2022/05/01 14:25:21;;;;;;;;;;;16.70;72.30;;;;;;5054822;28;20050;-69
2022/05/01 14:27:49;;;;;;;;;;;16.70;72.20;;;;;;5056278;28;20694;-69
2022/05/01 14:30:17;;;;;;;;;;;16.70;71.80;;;;;;5059391;28;19928;-69
2022/05/01 14:32:46;;;;;;;;;;;16.80;71.80;;;;;;5055518;28;19952;-69
2022/05/01 14:35:15;;;;;;;;;;;16.80;71.80;;;;;;5060145;28;19935;-69
2022/05/01 14:37:45;;;;;;;;;;;16.80;71.60;;;;;;5057906;28;19971;-68
2022/05/01 14:40:12;;;;;;;;;;;16.90;71.60;;;;;;5056145;28;19928;-69
2022/05/01 14:42:40;;;;;;;;;;;16.90;71.60;;;;;;5061213;28;19935;-69
2022/05/01 14:45:10;;;;;;;;;;;16.90;71.50;;;;;;5057308;28;19928;-67
2022/05/01 14:47:46;;;;;;;;;;;16.90;71.40;;;;;;5060419;28;20354;-69
2022/05/01 14:50:15;;;;;;;;;;;17.00;71.30;;;;;;5058967;28;19928;-68
2022/05/01 14:52:42;;;;;;;;;;;17.00;70.70;;;;;;5057434;28;20011;-67
2022/05/01 14:55:10;;;;;;;;;;;17.00;70.20;;;;;;5057451;28;19943;-67
2022/05/01 14:57:36;;;;;;;;;;;17.00;70.10;;;;;;5059765;28;19935;-70
2022/05/01 15:08:31;;;;;;;;;;;17.10;70.60;;;;;;5057510;28;19936;-68
2022/05/01 15:10:58;;;;;;;;;;;17.10;70.60;;;;;;5060557;28;19935;-69
2022/05/01 15:13:25;;;;;;;;;;;17.10;70.80;;;;;;5057719;28;19929;-68
2022/05/01 15:15:56;;;;;;;;;;;17.10;70.50;;;;;;5057261;28;19935;-70